e-Mail: Password: Lost your password? Click here. - Register a new user

c h a v e z j u a r e z . c o m

Weather - Tiempo - Wetter - Temps

METAR DATA MMMX (Mexico City)

Mexico City / Licenci, Mexico (MMMX) 19-26N 099-06W
Jan 21, 2020 - 07:50 AM EST / 2020.01.21 1250 UTC
Wind: Calm:0
Visibility: 7 mile(s):0
Sky conditions: mostly clear
Temperature: 42 F (6 C)
Dew Point: 39 F (4 C)
Relative Humidity: 86%
Pressure (altimeter): 30.46 in. Hg (1031 hPa)
ob: MMMX 211250Z 00000KT 7SM FEW220 06/04 A3046 NOSIG RMK 8/001 HZY
cycle: 13

Mexico City

St. Prex




Current weather alarms for Switzerland


www.wetteralarm.ch